首页
METAR-TAF:

METAR-TAF

机场 :

慕尼黑机场

慕尼黑, 德国

纬度: 48-21N, 经度: 011-47E, 海拔: 453米

当前天气观测

该预报发布于26分钟前的01:50 UTC
风速26节,风向西转西南
温度 7°C
湿度 76%
气压 1018 hPa
能见度10公里或以上
散云层高于2000英尺, 积雨云.
多云层高于3000英尺
阵雨, 附近有雷暴

METAR: EDDM 210150Z 25026KT 9999 SHRA VCTS SCT020CB BKN030 07/03 Q1018 TEMPO 25020G40KT TSRA

时间: 03:16 (02:16 UTC)

预报

该预报发布于19分钟前的01:57 UTC
预报有效从21日的 01点(UTC)到 22日的 06点(UTC)
风速20节,风向西,有时为35节阵风
能见度10公里或以上
多云层高于2000英尺
短暂存在
从 21日的 01点(UTC)到 21日的 03点(UTC)
风速25节,风向西转西北,有时为50节阵风
能見度: 3500
散云层高于1200英尺
多云层高于2000英尺, 积雨云.
雷暴, 雨
成为
从 21日的 04点(UTC)到 21日的 06点(UTC)
风速15节,风向西,有时为25节阵风
成为
从 21日的 15点(UTC)到 21日的 17点(UTC)
风速5节,风向西
成为
从 21日的 20点(UTC)到 21日的 23点(UTC)
风速3节,风向南转西南

TAF: EDDM 210157Z 2101/2206 28020G35KT 9999 BKN020 TEMPO 2101/2103 30025G50KT 3500 TSRA SCT012 BKN020CB BECMG 2104/2106 27015G25KT BECMG 2115/2117 27005KT BECMG 2120/2123 21003KT

超过4000个机场的气象观测和天气预报(METAR&TAF报告)。

可查询的气象台以黄色和红色小点在地图上表示。

将鼠标移到小点上方,可查看气象台名称。

然后点击查看天气观测和预报。

如需切换地图:点击带黑十字的绿色按钮放大地图;点击带横线的绿色按钮缩小地图;或者点击绿色箭头查看邻近地区的地图。


METAR-TAF: